createdAt,value
2022-10-10T00:01:36.558Z,54.90
2022-10-10T00:04:05.823Z,53.10
2022-10-10T00:06:33.536Z,52.55
2022-10-10T00:09:01.854Z,50.00
2022-10-10T00:11:29.138Z,45.92
2022-10-10T00:13:56.124Z,44.80
2022-10-10T00:16:23.219Z,47.83
2022-10-10T00:18:50.355Z,52.47
2022-10-10T00:21:17.944Z,50.58
2022-10-10T00:23:44.880Z,55.67
2022-10-10T00:26:16.302Z,46.83
2022-10-10T00:28:45.748Z,48.45
2022-10-10T00:31:12.713Z,47.97
2022-10-10T00:33:39.932Z,45.20
2022-10-10T00:36:07.630Z,39.63
2022-10-10T00:38:35.380Z,39.42
2022-10-10T00:41:03.065Z,42.67
2022-10-10T00:43:30.144Z,38.95
2022-10-10T00:45:57.501Z,40.30
2022-10-10T00:48:39.898Z,40.80
2022-10-10T00:51:11.915Z,38.38
2022-10-10T00:54:05.873Z,33.10
2022-10-10T00:56:45.865Z,38.03
2022-10-10T00:59:13.017Z,35.07
2022-10-10T01:01:41.415Z,31.77
2022-10-10T01:04:32.592Z,32.30
2022-10-10T01:07:00.591Z,30.73
2022-10-10T01:09:29.264Z,30.73
2022-10-10T01:12:08.853Z,38.53
2022-10-10T01:14:47.881Z,41.00
2022-10-10T01:17:14.743Z,35.88
2022-10-10T01:20:03.313Z,33.72
2022-10-10T01:22:57.014Z,37.78
2022-10-10T01:25:51.322Z,35.65
2022-10-10T01:28:43.237Z,32.50
2022-10-10T01:31:14.043Z,32.17
2022-10-10T01:36:33.135Z,27.83
2022-10-10T01:39:27.862Z,28.23
2022-10-10T01:42:08.373Z,25.42
2022-10-10T01:44:35.332Z,27.05
2022-10-10T01:47:02.326Z,28.27
2022-10-10T01:49:33.076Z,27.85
2022-10-10T01:52:32.525Z,26.13
2022-10-10T01:55:15.118Z,25.77
2022-10-10T01:57:52.161Z,29.70
2022-10-10T02:00:19.827Z,31.00
2022-10-10T02:03:02.824Z,28.45
2022-10-10T02:05:49.711Z,26.15
2022-10-10T02:08:22.690Z,32.05
2022-10-10T02:10:52.997Z,30.02
2022-10-10T02:13:24.217Z,30.80
2022-10-10T02:15:58.308Z,30.92
2022-10-10T02:18:29.352Z,31.17
2022-10-10T02:20:56.529Z,35.15
2022-10-10T02:23:24.012Z,31.83
2022-10-10T02:25:54.728Z,32.53
2022-10-10T02:28:30.196Z,31.58
2022-10-10T02:31:01.481Z,39.00
2022-10-10T02:33:41.979Z,37.35
2022-10-10T02:36:10.073Z,34.50
2022-10-10T02:38:38.316Z,30.45
2022-10-10T02:41:07.502Z,32.95
2022-10-10T02:43:35.653Z,58.28
2022-10-10T02:46:06.479Z,39.78
2022-10-10T02:51:00.521Z,32.47
2022-10-10T02:53:28.328Z,38.05
2022-10-10T02:55:55.274Z,30.35
2022-10-10T02:58:22.256Z,36.80
2022-10-10T03:00:49.316Z,28.30
2022-10-10T03:03:16.228Z,33.63
2022-10-10T03:05:43.119Z,37.72
2022-10-10T03:08:11.863Z,31.08
2022-10-10T03:10:39.393Z,29.30
2022-10-10T03:13:06.436Z,29.67
2022-10-10T03:15:33.361Z,27.50
2022-10-10T03:18:00.303Z,27.35
2022-10-10T03:20:27.255Z,25.98
2022-10-10T03:22:54.188Z,27.73
2022-10-10T03:25:21.105Z,28.23
2022-10-10T03:27:48.550Z,23.50
2022-10-10T03:30:15.894Z,28.50
2022-10-10T03:32:42.823Z,34.58
2022-10-10T03:35:11.174Z,31.02
2022-10-10T03:37:38.092Z,36.35
2022-10-10T03:40:05.362Z,29.58
2022-10-10T03:42:32.300Z,33.65
2022-10-10T03:44:59.245Z,39.33
2022-10-10T03:47:26.246Z,36.25
2022-10-10T03:49:53.067Z,40.72
2022-10-10T03:52:20.018Z,45.85
2022-10-10T03:54:47.297Z,47.95
2022-10-10T03:57:14.257Z,39.80
2022-10-10T03:59:41.148Z,37.65
2022-10-10T04:02:08.550Z,44.08
2022-10-10T04:04:35.709Z,43.97
2022-10-10T04:07:02.686Z,38.95
2022-10-10T04:09:30.098Z,36.25
2022-10-10T04:11:57.286Z,35.15
2022-10-10T04:14:24.389Z,35.28
2022-10-10T04:16:51.354Z,33.90
2022-10-10T04:19:18.565Z,30.75
2022-10-10T04:21:45.533Z,33.53
2022-10-10T04:24:12.654Z,36.60
2022-10-10T04:26:39.618Z,34.08
2022-10-10T04:29:06.607Z,30.83
2022-10-10T04:31:33.994Z,31.58
2022-10-10T04:34:00.933Z,34.03
2022-10-10T04:36:28.169Z,32.55
2022-10-10T04:39:05.439Z,25.80
2022-10-10T04:41:32.405Z,25.90
2022-10-10T04:43:59.349Z,25.60
2022-10-10T04:46:26.399Z,23.75
2022-10-10T04:48:53.351Z,21.55
2022-10-10T04:51:20.228Z,21.98
2022-10-10T04:53:50.415Z,20.33
2022-10-10T04:56:17.805Z,25.77
2022-10-10T04:58:44.865Z,21.40
2022-10-10T05:01:11.850Z,26.23
2022-10-10T05:03:38.818Z,22.55
2022-10-10T05:06:06.314Z,26.30
2022-10-10T05:08:33.521Z,26.55
2022-10-10T05:11:00.775Z,28.27
2022-10-10T05:13:27.961Z,35.08
2022-10-10T05:15:54.915Z,34.55
2022-10-10T05:18:22.583Z,39.30
2022-10-10T05:20:49.435Z,29.27
2022-10-10T05:23:16.951Z,28.80
2022-10-10T05:25:45.703Z,23.88
2022-10-10T05:28:12.865Z,27.77
2022-10-10T05:30:39.872Z,28.15
2022-10-10T05:33:06.909Z,33.55
2022-10-10T05:35:33.929Z,28.92
2022-10-10T05:38:01.082Z,33.05
2022-10-10T05:40:28.506Z,25.55
2022-10-10T05:42:55.541Z,24.85
2022-10-10T05:45:22.548Z,27.13
2022-10-10T05:47:49.553Z,26.38
2022-10-10T05:50:30.028Z,20.17
2022-10-10T05:52:57.419Z,23.25
2022-10-10T05:55:24.615Z,24.60
2022-10-10T05:57:51.593Z,24.13
2022-10-10T06:00:18.818Z,23.52
2022-10-10T06:02:46.278Z,22.50
2022-10-10T06:05:13.214Z,22.92
2022-10-10T06:08:02.432Z,25.58
2022-10-10T06:10:27.133Z,23.23
2022-10-10T06:12:54.306Z,26.05
2022-10-10T06:15:21.643Z,24.10
2022-10-10T06:17:48.593Z,25.92
2022-10-10T06:20:15.779Z,27.45
2022-10-10T06:22:42.690Z,27.35
2022-10-10T06:25:29.042Z,26.33
2022-10-10T06:27:57.186Z,28.67
2022-10-10T06:30:24.289Z,28.27
2022-10-10T06:32:55.806Z,25.33
2022-10-10T06:35:23.679Z,27.63
2022-10-10T06:37:50.571Z,28.17
2022-10-10T06:40:17.981Z,24.50
2022-10-10T06:42:44.937Z,25.83
2022-10-10T06:45:11.869Z,27.13
2022-10-10T06:47:40.107Z,22.92
2022-10-10T06:50:07.295Z,26.08
2022-10-10T06:52:34.274Z,27.48
2022-10-10T06:55:01.189Z,25.42
2022-10-10T06:57:28.757Z,23.13
2022-10-10T06:59:55.798Z,26.00
2022-10-10T07:02:23.849Z,27.70
2022-10-10T07:04:51.212Z,26.52
2022-10-10T07:07:18.248Z,26.73
2022-10-10T07:09:45.178Z,25.40
2022-10-10T07:12:12.508Z,24.27
2022-10-10T07:14:39.468Z,28.58
2022-10-10T07:17:06.382Z,31.73
2022-10-10T07:19:33.450Z,30.35
2022-10-10T07:22:00.407Z,30.48
2022-10-10T07:24:27.364Z,30.10
2022-10-10T07:27:03.479Z,32.50
2022-10-10T07:29:33.421Z,33.15
2022-10-10T07:32:00.588Z,34.50
2022-10-10T07:34:27.795Z,36.05
2022-10-10T07:36:54.748Z,35.70
2022-10-10T07:39:25.559Z,37.65
2022-10-10T07:44:20.330Z,30.02
2022-10-10T07:46:47.787Z,31.50
2022-10-10T07:49:14.669Z,30.05
2022-10-10T07:51:41.849Z,27.50
2022-10-10T07:54:10.757Z,27.20
2022-10-10T07:56:37.753Z,26.60
2022-10-10T07:59:04.726Z,26.67
2022-10-10T08:01:31.750Z,27.88
2022-10-10T08:03:58.984Z,24.63
2022-10-10T08:06:26.161Z,23.92
2022-10-10T08:08:53.238Z,24.63
2022-10-10T08:11:22.169Z,23.30
2022-10-10T08:13:50.255Z,23.30
2022-10-10T08:16:18.173Z,21.58
2022-10-10T08:18:45.373Z,21.95
2022-10-10T08:21:14.718Z,22.58
2022-10-10T08:23:42.170Z,19.95
2022-10-10T08:26:11.144Z,19.10
2022-10-10T08:28:38.946Z,20.02
2022-10-10T08:31:08.138Z,18.10
2022-10-10T08:33:36.084Z,17.15
2022-10-10T08:36:14.927Z,15.85
2022-10-10T08:38:42.589Z,13.73
2022-10-10T08:41:24.684Z,14.45
2022-10-10T08:43:57.074Z,13.27
2022-10-10T08:47:15.623Z,12.07
2022-10-10T08:50:07.150Z,12.43
2022-10-10T08:52:53.987Z,11.35
2022-10-10T08:55:44.216Z,13.32
2022-10-10T08:58:24.499Z,12.85
2022-10-10T09:00:57.265Z,12.48
2022-10-10T09:03:42.502Z,10.43
2022-10-10T09:06:37.495Z,9.27
2022-10-10T09:09:10.587Z,9.50
2022-10-10T09:12:07.096Z,9.82
2022-10-10T09:14:45.074Z,8.60
2022-10-10T09:17:34.924Z,8.82
2022-10-10T09:20:07.996Z,8.65
2022-10-10T09:22:52.292Z,8.32
2022-10-10T09:25:33.089Z,7.95
2022-10-10T09:28:19.639Z,7.32
2022-10-10T09:30:53.067Z,8.60
2022-10-10T09:33:28.767Z,8.73
2022-10-10T09:35:59.049Z,8.68
2022-10-10T09:38:37.898Z,8.77
2022-10-10T09:41:39.690Z,8.10
2022-10-10T09:44:11.852Z,8.82
2022-10-10T09:46:39.064Z,8.20
2022-10-10T09:49:06.332Z,7.18
2022-10-10T09:51:34.340Z,7.00
2022-10-10T09:54:01.736Z,8.25
2022-10-10T09:56:35.235Z,8.35
2022-10-10T09:59:02.280Z,5.90
2022-10-10T10:01:33.264Z,5.53
2022-10-10T10:04:30.924Z,5.90
2022-10-10T10:07:19.587Z,6.07
2022-10-10T10:09:59.534Z,16.13
2022-10-10T10:12:37.587Z,4.20
2022-10-10T10:15:07.580Z,4.47
2022-10-10T10:17:34.504Z,4.40
2022-10-10T10:20:01.479Z,7.47
2022-10-10T10:22:54.719Z,3.45
2022-10-10T10:25:39.134Z,4.80
2022-10-10T10:28:12.241Z,6.22
2022-10-10T10:30:40.557Z,3.30
2022-10-10T10:33:33.557Z,3.58
2022-10-10T10:36:19.456Z,3.22
2022-10-10T10:39:05.177Z,3.20
2022-10-10T10:41:38.237Z,3.50
2022-10-10T10:44:05.135Z,3.58
2022-10-10T10:46:38.132Z,3.22
2022-10-10T10:49:04.998Z,2.58
2022-10-10T10:51:41.192Z,3.58
2022-10-10T10:54:25.511Z,3.50
2022-10-10T10:57:28.817Z,4.00
2022-10-10T11:00:22.275Z,3.75
2022-10-10T11:03:14.865Z,3.75
2022-10-10T11:06:10.592Z,3.15
2022-10-10T11:09:45.050Z,3.30
2022-10-10T11:12:14.166Z,3.42
2022-10-10T11:14:51.407Z,3.13
2022-10-10T11:17:26.909Z,3.28
2022-10-10T11:20:17.198Z,3.20
2022-10-10T11:22:52.519Z,4.38
2022-10-10T11:25:47.827Z,4.30
2022-10-10T11:28:21.386Z,3.78
2022-10-10T11:30:58.350Z,3.90
2022-10-10T11:33:39.124Z,3.85
2022-10-10T11:36:16.144Z,3.97
2022-10-10T11:38:54.952Z,3.65
2022-10-10T11:41:27.435Z,3.80
2022-10-10T11:44:04.989Z,3.80
2022-10-10T11:46:54.783Z,3.95
2022-10-10T11:49:37.132Z,3.58
2022-10-10T11:52:35.133Z,3.88
2022-10-10T11:55:24.745Z,4.18
2022-10-10T11:58:39.339Z,4.47
2022-10-10T12:01:19.402Z,3.90
2022-10-10T12:03:46.414Z,4.27
2022-10-10T12:06:28.206Z,4.38
2022-10-10T12:09:04.598Z,3.90
2022-10-10T12:11:37.456Z,3.35
2022-10-10T12:14:09.408Z,3.25
2022-10-10T12:16:38.114Z,3.50
2022-10-10T12:19:09.316Z,3.40
2022-10-10T12:21:59.743Z,3.15
2022-10-10T12:24:29.866Z,3.10
2022-10-10T12:26:56.801Z,3.50
2022-10-10T12:30:08.733Z,3.05
2022-10-10T12:32:46.107Z,2.95
2022-10-10T12:35:42.363Z,3.03
2022-10-10T12:38:11.476Z,2.65
2022-10-10T12:41:05.205Z,2.28
2022-10-10T12:43:48.417Z,2.40
2022-10-10T12:46:21.073Z,3.17
2022-10-10T12:49:16.951Z,2.40
2022-10-10T12:51:44.943Z,2.38
2022-10-10T12:54:28.127Z,2.40
2022-10-10T12:57:07.949Z,2.08
2022-10-10T12:59:37.227Z,2.50
2022-10-10T13:02:24.693Z,1.95
2022-10-10T13:04:56.421Z,2.03
2022-10-10T13:07:24.998Z,1.90
2022-10-10T13:09:55.054Z,2.15
2022-10-10T13:12:27.908Z,2.20
2022-10-10T13:14:55.818Z,2.40
2022-10-10T13:17:24.548Z,2.60
2022-10-10T13:19:52.973Z,3.40
2022-10-10T13:22:21.044Z,3.95
2022-10-10T13:24:49.536Z,2.13
2022-10-10T13:27:26.802Z,2.80
2022-10-10T13:29:55.461Z,2.72
2022-10-10T13:32:29.577Z,2.40
2022-10-10T13:35:06.613Z,2.30
2022-10-10T13:37:34.535Z,2.00
2022-10-10T13:40:01.974Z,1.90
2022-10-10T13:42:36.170Z,1.73
2022-10-10T13:45:29.204Z,2.20
2022-10-10T13:48:03.629Z,2.05
2022-10-10T13:50:53.409Z,1.67
2022-10-10T13:53:26.865Z,2.00
2022-10-10T13:56:02.706Z,1.73
2022-10-10T13:58:52.796Z,1.92
2022-10-10T14:01:34.992Z,1.87
2022-10-10T14:04:15.558Z,2.20
2022-10-10T14:06:59.746Z,2.42
2022-10-10T14:09:41.824Z,1.90
2022-10-10T14:12:17.574Z,2.05
2022-10-10T14:14:48.307Z,1.70
2022-10-10T14:17:16.204Z,1.85
2022-10-10T14:19:45.408Z,1.70
2022-10-10T14:22:12.526Z,1.75
2022-10-10T14:24:39.508Z,1.90
2022-10-10T14:27:20.722Z,2.00
2022-10-10T14:29:48.159Z,2.20
2022-10-10T14:32:16.181Z,2.03
2022-10-10T14:34:43.448Z,2.20
2022-10-10T14:37:29.382Z,2.00
2022-10-10T14:39:56.819Z,2.10
2022-10-10T14:42:25.610Z,1.98
2022-10-10T14:44:52.773Z,2.25
2022-10-10T14:47:22.350Z,1.90
2022-10-10T14:49:49.717Z,2.03
2022-10-10T14:52:16.707Z,2.08
2022-10-10T14:54:43.700Z,2.28
2022-10-10T14:57:13.488Z,2.40
2022-10-10T14:59:48.426Z,2.53
2022-10-10T15:02:21.585Z,2.40
2022-10-10T15:04:49.274Z,3.00
2022-10-10T15:07:16.718Z,3.63
2022-10-10T15:10:27.477Z,3.72
2022-10-10T15:12:32.985Z,3.90
2022-10-10T15:14:59.930Z,3.90
2022-10-10T15:17:27.594Z,3.72
2022-10-10T15:19:54.534Z,4.10
2022-10-10T15:22:21.484Z,4.40
2022-10-10T15:24:48.460Z,4.13
2022-10-10T15:27:15.484Z,4.03
2022-10-10T15:29:42.488Z,5.82
2022-10-10T15:32:09.908Z,5.55
2022-10-10T15:34:37.012Z,5.25
2022-10-10T15:37:04.490Z,4.22
2022-10-10T15:39:31.766Z,4.00
2022-10-10T15:42:06.998Z,4.13
2022-10-10T15:44:36.906Z,4.45
2022-10-10T15:47:04.032Z,4.68
2022-10-10T15:49:30.977Z,4.82
2022-10-10T15:51:57.935Z,4.40
2022-10-10T15:54:24.933Z,4.65
2022-10-10T15:56:51.960Z,4.60
2022-10-10T16:01:45.762Z,4.18
2022-10-10T16:04:12.876Z,4.90
2022-10-10T16:06:39.796Z,5.18
2022-10-10T16:09:27.558Z,5.00
2022-10-10T16:11:53.787Z,4.88
2022-10-10T16:14:20.732Z,5.30
2022-10-10T16:16:47.726Z,8.82
2022-10-10T16:19:14.903Z,6.35
2022-10-10T16:21:42.003Z,5.82
2022-10-10T16:24:10.163Z,5.82
2022-10-10T16:26:38.338Z,7.03
2022-10-10T16:29:07.206Z,9.52
2022-10-10T16:31:39.427Z,6.60
2022-10-10T16:34:07.691Z,7.82
2022-10-10T16:36:37.392Z,8.57
2022-10-10T16:39:05.378Z,7.50
2022-10-10T16:41:49.539Z,8.07
2022-10-10T16:44:17.891Z,8.90
2022-10-10T16:46:45.122Z,10.85
2022-10-10T16:49:20.957Z,36.08
2022-10-10T16:51:48.451Z,20.27
2022-10-10T16:54:15.947Z,16.58
2022-10-10T16:56:42.895Z,14.70
2022-10-10T16:59:09.841Z,14.27
2022-10-10T17:01:37.060Z,13.43
2022-10-10T17:04:04.747Z,13.07
2022-10-10T17:06:38.048Z,11.68
2022-10-10T17:09:07.695Z,9.95
2022-10-10T17:11:35.332Z,10.13
2022-10-10T17:14:02.518Z,9.57
2022-10-10T17:19:17.749Z,9.00
2022-10-10T17:21:44.667Z,11.55
2022-10-10T17:24:11.649Z,15.35
2022-10-10T17:26:38.687Z,15.73
2022-10-10T17:29:05.859Z,15.52
2022-10-10T17:31:33.033Z,23.73
2022-10-10T17:34:00.225Z,23.55
2022-10-10T17:36:28.447Z,38.83
2022-10-10T17:39:02.310Z,22.45
2022-10-10T17:41:29.798Z,23.20
2022-10-10T17:43:56.970Z,20.88
2022-10-10T17:46:36.585Z,27.05
2022-10-10T17:49:06.845Z,23.02
2022-10-10T17:51:35.569Z,20.98
2022-10-10T17:54:03.726Z,21.77
2022-10-10T17:56:31.706Z,22.35
2022-10-10T17:59:01.783Z,30.70
2022-10-10T18:01:31.118Z,20.27
2022-10-10T18:03:58.860Z,19.13
2022-10-10T18:06:26.584Z,16.67
2022-10-10T18:08:54.511Z,20.10
2022-10-10T18:11:24.374Z,19.10
2022-10-10T18:13:52.415Z,19.05
2022-10-10T18:16:22.833Z,22.45
2022-10-10T18:18:51.910Z,20.00
2022-10-10T18:21:21.535Z,20.10
2022-10-10T18:23:49.123Z,22.55
2022-10-10T18:26:19.601Z,23.45
2022-10-10T18:28:47.097Z,19.67
2022-10-10T18:31:20.193Z,15.40
2022-10-10T18:33:47.698Z,16.73
2022-10-10T18:36:17.624Z,16.13
2022-10-10T18:38:44.563Z,16.10
2022-10-10T18:41:18.480Z,16.63
2022-10-10T18:43:46.491Z,17.08
2022-10-10T18:46:16.207Z,15.57
2022-10-10T18:48:44.086Z,14.55
2022-10-10T18:51:18.907Z,15.52
2022-10-10T18:53:47.081Z,15.20
2022-10-10T18:56:17.071Z,16.58
2022-10-10T18:58:43.994Z,16.63
2022-10-10T19:01:12.862Z,15.70
2022-10-10T19:03:40.990Z,14.88
2022-10-10T19:06:11.037Z,16.13
2022-10-10T19:08:38.191Z,15.00
2022-10-10T19:11:07.331Z,17.13
2022-10-10T19:13:35.167Z,16.50
2022-10-10T19:16:06.933Z,16.08
2022-10-10T19:18:34.362Z,15.27
2022-10-10T19:21:04.092Z,15.85
2022-10-10T19:23:32.501Z,16.92
2022-10-10T19:26:05.198Z,16.42
2022-10-10T19:28:32.961Z,16.38
2022-10-10T19:31:06.714Z,17.08
2022-10-10T19:33:34.627Z,17.20
2022-10-10T19:36:04.477Z,18.88
2022-10-10T19:38:34.473Z,18.45
2022-10-10T19:41:01.802Z,17.48
2022-10-10T19:43:29.408Z,18.83
2022-10-10T19:45:56.555Z,18.33
2022-10-10T19:48:25.149Z,17.08
2022-10-10T19:50:54.194Z,18.30
2022-10-10T19:53:21.297Z,17.58
2022-10-10T19:56:00.063Z,17.25
2022-10-10T19:58:28.090Z,15.20
2022-10-10T20:00:55.347Z,15.95
2022-10-10T20:03:22.386Z,15.07
2022-10-10T20:05:49.734Z,16.33
2022-10-10T20:08:16.861Z,18.20
2022-10-10T20:10:44.764Z,17.38
2022-10-10T20:13:15.207Z,19.38
2022-10-10T20:15:44.396Z,19.70
2022-10-10T20:18:12.877Z,21.48
2022-10-10T20:20:41.991Z,19.27
2022-10-10T20:23:09.683Z,18.40
2022-10-10T20:25:41.710Z,18.73
2022-10-10T20:28:09.557Z,17.42
2022-10-10T20:30:40.590Z,17.60
2022-10-10T20:33:07.553Z,17.38
2022-10-10T20:35:35.213Z,16.77
2022-10-10T20:38:03.414Z,15.43
2022-10-10T20:40:30.862Z,17.77
2022-10-10T20:42:58.027Z,18.70
2022-10-10T20:45:25.030Z,17.48
2022-10-10T20:47:52.007Z,19.73
2022-10-10T20:50:18.996Z,20.60
2022-10-10T20:52:45.912Z,19.63
2022-10-10T20:55:12.896Z,19.65
2022-10-10T20:57:39.918Z,19.92
2022-10-10T21:00:07.580Z,19.20
2022-10-10T21:02:35.228Z,19.30
2022-10-10T21:05:02.232Z,17.85
2022-10-10T21:07:29.711Z,17.38
2022-10-10T21:09:56.941Z,17.13
2022-10-10T21:12:23.906Z,16.48
2022-10-10T21:14:50.853Z,16.88
2022-10-10T21:17:17.769Z,17.05
2022-10-10T21:19:44.946Z,15.98
2022-10-10T21:22:12.026Z,15.93
2022-10-10T21:24:39.711Z,15.90
2022-10-10T21:27:06.720Z,17.15
2022-10-10T21:29:33.846Z,16.88
2022-10-10T21:32:02.387Z,18.05
2022-10-10T21:34:29.312Z,16.33
2022-10-10T21:36:56.886Z,14.90
2022-10-10T21:39:24.873Z,15.98
2022-10-10T21:41:51.812Z,15.38
2022-10-10T21:44:18.659Z,16.52
2022-10-10T21:46:45.705Z,16.45
2022-10-10T21:49:14.610Z,16.15
2022-10-10T21:51:43.587Z,15.20
2022-10-10T21:54:10.811Z,15.90
2022-10-10T21:56:38.813Z,18.92
2022-10-10T21:59:06.160Z,17.35
2022-10-10T22:01:33.511Z,17.02
2022-10-10T22:04:02.109Z,16.75
2022-10-10T22:06:29.511Z,16.23
2022-10-10T22:08:58.752Z,16.50
2022-10-10T22:11:27.246Z,15.88
2022-10-10T22:13:54.204Z,16.25
2022-10-10T22:16:21.333Z,16.48
2022-10-10T22:18:48.517Z,16.42
2022-10-10T22:21:17.422Z,15.38
2022-10-10T22:23:45.440Z,14.93
2022-10-10T22:26:14.682Z,15.20
2022-10-10T22:28:42.279Z,16.90
2022-10-10T22:31:11.209Z,16.85
2022-10-10T22:33:38.421Z,15.45
2022-10-10T22:36:07.173Z,16.65
2022-10-10T22:38:38.794Z,15.43
2022-10-10T22:41:05.732Z,15.88
2022-10-10T22:43:33.194Z,16.10
2022-10-10T22:46:00.287Z,15.55
2022-10-10T22:48:27.781Z,15.77
2022-10-10T22:51:13.499Z,15.77
2022-10-10T22:53:41.438Z,13.82
2022-10-10T22:56:09.895Z,14.13
2022-10-10T22:58:37.589Z,14.00
2022-10-10T23:01:06.321Z,15.82
2022-10-10T23:03:33.393Z,14.73
2022-10-10T23:06:00.432Z,13.55
2022-10-10T23:08:27.443Z,14.27
2022-10-10T23:10:54.333Z,13.88
2022-10-10T23:13:21.683Z,14.85
2022-10-10T23:15:48.667Z,13.70
2022-10-10T23:18:15.635Z,14.18
2022-10-10T23:20:42.598Z,12.95
2022-10-10T23:23:09.750Z,13.23
2022-10-10T23:25:41.484Z,12.85
2022-10-10T23:28:09.145Z,13.18
2022-10-10T23:30:39.904Z,14.18
2022-10-10T23:33:07.089Z,13.93
2022-10-10T23:35:34.929Z,13.95
2022-10-10T23:38:02.160Z,13.63
2022-10-10T23:40:29.336Z,13.63
2022-10-10T23:42:56.338Z,13.07
2022-10-10T23:45:23.282Z,12.98
2022-10-10T23:47:50.309Z,13.15
2022-10-10T23:50:17.392Z,12.30
2022-10-10T23:52:44.331Z,12.73
2022-10-10T23:55:11.260Z,12.57
2022-10-10T23:57:38.251Z,11.38
